Time;durP1;ratioP1;P1;durP2;ratioP2;P2;SDS_P1;SDS_P2;PMS_P1;PMS_P2;Temp;Humidity;BMP_temperature;BMP_pressure;BME280_temperature;BME280_humidity;BME280_pressure;Samples;Min_cycle;Max_cycle;Signal;HPM_P1;HPM_P2
2021/08/01 00:01:04;;;;;;;6.22;3.03;;;;;;;;;;5038453;28;20541;-65
2021/08/01 00:03:30;;;;;;;5.43;3.05;;;;;;;;;;5038808;28;20534;-66
2021/08/01 00:05:55;;;;;;;4.60;2.60;;;;;;;;;;5036728;28;20044;-64
2021/08/01 00:08:20;;;;;;;6.43;3.28;;;;;;;;;;5037233;28;20264;-65
2021/08/01 00:10:47;;;;;;;4.68;2.88;;;;;;;;;;5019984;28;20043;-67
2021/08/01 00:13:13;;;;;;;3.78;2.85;;;;;;;;;;5037686;28;20052;-67
2021/08/01 00:15:38;;;;;;;5.43;3.13;;;;;;;;;;5036447;28;20087;-67
2021/08/01 00:18:03;;;;;;;6.40;2.97;;;;;;;;;;5037481;28;20030;-67
2021/08/01 00:20:29;;;;;;;7.70;3.10;;;;;;;;;;5037277;28;20036;-65
2021/08/01 00:22:54;;;;;;;5.35;3.28;;;;;;;;;;5038722;28;20032;-64
2021/08/01 00:25:20;;;;;;;5.93;3.58;;;;;;;;;;5036330;28;20056;-65
2021/08/01 00:27:45;;;;;;;6.82;3.40;;;;;;;;;;5038291;28;20032;-67
2021/08/01 00:30:11;;;;;;;3.67;3.13;;;;;;;;;;5036315;28;20023;-65
2021/08/01 00:32:38;;;;;;;7.35;3.13;;;;;;;;;;5037060;28;20033;-67
2021/08/01 00:35:06;;;;;;;4.55;3.08;;;;;;;;;;5036455;28;20374;-66
2021/08/01 00:37:34;;;;;;;6.95;2.95;;;;;;;;;;5036713;28;20482;-65
2021/08/01 00:39:59;;;;;;;3.85;2.90;;;;;;;;;;5036942;28;20067;-66
2021/08/01 00:42:25;;;;;;;4.60;3.10;;;;;;;;;;5018866;28;20052;-64
2021/08/01 00:44:50;;;;;;;5.10;3.20;;;;;;;;;;5037761;28;20428;-65
2021/08/01 00:47:16;;;;;;;4.75;2.88;;;;;;;;;;5037083;28;20053;-66
2021/08/01 00:49:43;;;;;;;7.50;3.30;;;;;;;;;;5037829;28;20060;-64
2021/08/01 00:52:08;;;;;;;7.28;3.20;;;;;;;;;;5037137;28;20029;-67
2021/08/01 00:54:34;;;;;;;5.72;3.17;;;;;;;;;;5036548;28;20380;-67
2021/08/01 00:57:04;;;;;;;3.90;2.90;;;;;;;;;;5037715;28;20052;-66
2021/08/01 00:59:35;;;;;;;4.40;2.70;;;;;;;;;;5034444;28;20100;-67
2021/08/01 01:02:20;;;;;;;5.25;3.08;;;;;;;;;;5036259;28;20124;-67
2021/08/01 01:05:06;;;;;;;4.75;2.60;;;;;;;;;;5037235;28;20078;-67
2021/08/01 01:08:05;;;;;;;5.55;2.67;;;;;;;;;;5018761;28;20026;-64
2021/08/01 01:10:43;;;;;;;4.15;2.78;;;;;;;;;;5019346;28;20030;-68
2021/08/01 01:13:17;;;;;;;4.55;2.90;;;;;;;;;;5037997;28;20091;-64
2021/08/01 01:15:53;;;;;;;6.88;2.70;;;;;;;;;;5035430;28;20019;-68
2021/08/01 01:18:27;;;;;;;4.85;2.70;;;;;;;;;;5018527;28;20238;-66
2021/08/01 01:21:03;;;;;;;4.38;2.55;;;;;;;;;;5018042;28;20041;-64
2021/08/01 01:23:41;;;;;;;4.57;2.45;;;;;;;;;;5019574;28;20040;-63
2021/08/01 01:26:12;;;;;;;6.25;2.88;;;;;;;;;;5034660;28;20046;-64
2021/08/01 01:28:49;;;;;;;3.28;2.60;;;;;;;;;;5035716;28;20512;-66
2021/08/01 01:31:31;;;;;;;6.00;2.42;;;;;;;;;;5035637;28;20096;-69
2021/08/01 01:34:06;;;;;;;5.57;2.30;;;;;;;;;;5017380;28;20055;-67
2021/08/01 01:36:34;;;;;;;3.03;2.58;;;;;;;;;;5035594;28;20021;-66
2021/08/01 01:39:01;;;;;;;;;;;;;;;;;;5036588;28;20468;-68
2021/08/01 01:41:27;;;;;;;6.07;2.40;;;;;;;;;;5035582;28;20393;-68
2021/08/01 01:43:53;;;;;;;7.07;2.60;;;;;;;;;;5036392;28;20037;-66
2021/08/01 01:46:20;;;;;;;2.80;2.40;;;;;;;;;;5036189;28;20430;-66
2021/08/01 01:48:46;;;;;;;3.13;2.42;;;;;;;;;;5036375;28;20029;-65
2021/08/01 01:51:13;;;;;;;4.70;2.30;;;;;;;;;;5036270;28;20032;-66
2021/08/01 01:53:39;;;;;;;6.45;2.70;;;;;;;;;;5036297;28;20016;-65
2021/08/01 01:56:07;;;;;;;4.57;2.40;;;;;;;;;;5034990;28;20108;-68
2021/08/01 01:58:34;;;;;;;2.83;2.20;;;;;;;;;;5019385;28;20032;-65
2021/08/01 02:01:00;;;;;;;5.47;2.20;;;;;;;;;;5034697;28;20119;-66
2021/08/01 02:03:25;;;;;;;5.60;2.47;;;;;;;;;;5037019;28;20132;-66
2021/08/01 02:05:50;;;;;;;3.92;2.10;;;;;;;;;;5035655;28;20026;-66
2021/08/01 02:08:17;;;;;;;3.28;2.30;;;;;;;;;;5034903;28;20016;-66
2021/08/01 02:10:49;;;;;;;3.75;2.33;;;;;;;;;;5018425;28;20512;-66
2021/08/01 02:13:18;;;;;;;3.83;2.20;;;;;;;;;;5018477;28;20501;-63
2021/08/01 02:15:50;;;;;;;6.38;2.42;;;;;;;;;;5017545;28;20076;-66
2021/08/01 02:18:24;;;;;;;3.75;2.35;;;;;;;;;;5035247;28;20021;-66
2021/08/01 02:20:53;;;;;;;4.05;2.47;;;;;;;;;;5033879;28;20036;-66
2021/08/01 02:23:23;;;;;;;2.88;2.40;;;;;;;;;;5036109;28;20452;-66
2021/08/01 02:25:50;;;;;;;3.53;2.72;;;;;;;;;;5034845;28;20083;-64
2021/08/01 02:28:17;;;;;;;3.83;2.45;;;;;;;;;;5035520;28;20025;-67
2021/08/01 02:30:44;;;;;;;3.58;2.20;;;;;;;;;;5034549;28;20083;-66
2021/08/01 02:33:11;;;;;;;3.22;2.20;;;;;;;;;;5035558;28;20370;-62
2021/08/01 02:35:37;;;;;;;3.30;2.05;;;;;;;;;;5034064;28;20032;-68
2021/08/01 02:38:04;;;;;;;4.28;2.40;;;;;;;;;;5035587;28;20025;-65
2021/08/01 02:40:36;;;;;;;6.10;2.50;;;;;;;;;;5035061;28;20112;-65
2021/08/01 02:43:04;;;;;;;2.80;2.47;;;;;;;;;;5035196;28;20079;-65
2021/08/01 02:45:31;;;;;;;2.72;2.35;;;;;;;;;;5032899;28;20055;-64
2021/08/01 02:47:58;;;;;;;6.18;2.70;;;;;;;;;;5035365;28;20025;-65
2021/08/01 02:50:25;;;;;;;4.05;2.55;;;;;;;;;;5035030;28;20389;-64
2021/08/01 02:52:59;;;;;;;3.00;2.27;;;;;;;;;;5034832;28;20167;-65
2021/08/01 02:55:28;;;;;;;2.95;2.53;;;;;;;;;;5033345;28;20507;-64
2021/08/01 02:57:53;;;;;;;4.00;2.30;;;;;;;;;;5016661;28;20071;-66
2021/08/01 03:00:19;;;;;;;3.42;2.33;;;;;;;;;;5035299;28;20034;-62
2021/08/01 03:02:49;;;;;;;3.38;2.40;;;;;;;;;;5016965;28;20028;-67
2021/08/01 03:05:16;;;;;;;2.92;2.30;;;;;;;;;;5017461;28;20017;-66
2021/08/01 03:07:42;;;;;;;3.55;2.10;;;;;;;;;;5035073;28;20393;-62
2021/08/01 03:10:08;;;;;;;2.92;2.40;;;;;;;;;;5014329;28;20040;-65
2021/08/01 03:12:38;;;;;;;4.30;2.28;;;;;;;;;;5035557;28;20025;-65
2021/08/01 03:15:04;;;;;;;3.38;2.17;;;;;;;;;;5034537;28;20048;-65
2021/08/01 03:17:29;;;;;;;3.78;2.00;;;;;;;;;;5035637;28;20479;-66
2021/08/01 03:19:54;;;;;;;2.47;2.10;;;;;;;;;;5016492;28;20029;-65
2021/08/01 03:22:20;;;;;;;4.18;2.30;;;;;;;;;;5034521;28;20044;-64
2021/08/01 03:24:45;;;;;;;5.75;2.17;;;;;;;;;;5016290;28;20036;-66
2021/08/01 03:27:10;;;;;;;4.57;2.72;;;;;;;;;;5019584;28;20422;-63
2021/08/01 03:29:35;;;;;;;3.22;2.30;;;;;;;;;;5038238;28;20037;-64
2021/08/01 03:32:01;;;;;;;2.60;1.95;;;;;;;;;;5038052;28;20052;-65
2021/08/01 03:34:26;;;;;;;2.72;2.05;;;;;;;;;;5036787;28;20103;-67
2021/08/01 03:36:51;;;;;;;3.42;2.55;;;;;;;;;;5020011;28;20009;-65
2021/08/01 03:39:17;;;;;;;2.58;2.25;;;;;;;;;;5038219;28;20029;-68
2021/08/01 03:41:42;;;;;;;5.40;2.40;;;;;;;;;;5039566;28;20033;-67
2021/08/01 03:44:08;;;;;;;4.90;2.50;;;;;;;;;;5032500;28;20056;-65
2021/08/01 03:46:33;;;;;;;4.32;2.22;;;;;;;;;;5032119;28;20025;-68
2021/08/01 03:48:59;;;;;;;2.60;1.90;;;;;;;;;;5035204;28;20029;-64
2021/08/01 03:51:24;;;;;;;2.65;2.42;;;;;;;;;;5034219;28;20053;-63
2021/08/01 03:53:49;;;;;;;5.82;2.70;;;;;;;;;;5016891;28;20471;-64
2021/08/01 03:56:14;;;;;;;3.67;2.58;;;;;;;;;;5033340;28;20017;-68
2021/08/01 03:58:40;;;;;;;3.53;2.63;;;;;;;;;;5037157;28;20036;-64
2021/08/01 04:01:05;;;;;;;4.55;3.15;;;;;;;;;;5033910;28;20053;-67
2021/08/01 04:03:30;;;;;;;6.38;3.40;;;;;;;;;;5035561;28;20025;-64
2021/08/01 04:05:56;;;;;;;3.95;2.65;;;;;;;;;;5014980;28;20056;-64
2021/08/01 04:08:21;;;;;;;3.55;2.47;;;;;;;;;;5034029;28;20083;-64
2021/08/01 04:10:46;;;;;;;5.47;2.60;;;;;;;;;;5033586;28;20029;-67
2021/08/01 04:13:12;;;;;;;5.20;3.25;;;;;;;;;;5032539;28;20068;-66
2021/08/01 04:15:37;;;;;;;4.60;2.67;;;;;;;;;;5033442;28;20029;-65
2021/08/01 04:18:03;;;;;;;3.20;2.42;;;;;;;;;;5016716;28;20036;-67
2021/08/01 04:20:30;;;;;;;4.03;2.50;;;;;;;;;;5033230;28;20025;-63
2021/08/01 04:22:55;;;;;;;5.80;2.40;;;;;;;;;;5015409;28;20060;-68
2021/08/01 04:25:21;;;;;;;3.45;2.72;;;;;;;;;;5032502;28;20093;-65
2021/08/01 04:27:47;;;;;;;3.78;2.53;;;;;;;;;;5034014;28;20100;-65
2021/08/01 04:30:13;;;;;;;3.30;2.30;;;;;;;;;;5032627;28;20029;-65
2021/08/01 04:32:38;;;;;;;5.63;2.67;;;;;;;;;;5032385;28;20029;-67
2021/08/01 04:35:04;;;;;;;3.15;2.28;;;;;;;;;;5032324;28;20049;-66
2021/08/01 04:37:31;;;;;;;3.03;2.40;;;;;;;;;;5032162;28;20057;-66
2021/08/01 04:39:56;;;;;;;2.97;2.40;;;;;;;;;;5014562;28;20108;-65
2021/08/01 04:42:22;;;;;;;4.03;2.75;;;;;;;;;;5032580;28;20021;-69
2021/08/01 04:44:47;;;;;;;3.47;2.40;;;;;;;;;;5016685;28;20078;-68
2021/08/01 04:47:13;;;;;;;3.50;2.22;;;;;;;;;;5034542;28;20182;-65
2021/08/01 04:49:39;;;;;;;5.95;2.50;;;;;;;;;;5031377;28;20037;-68
2021/08/01 04:52:05;;;;;;;2.90;2.30;;;;;;;;;;5033648;28;20075;-66
2021/08/01 04:54:30;;;;;;;3.20;2.33;;;;;;;;;;5032779;28;20418;-67
2021/08/01 04:56:56;;;;;;;3.70;2.40;;;;;;;;;;5015097;28;20025;-64
2021/08/01 04:59:21;;;;;;;3.72;2.30;;;;;;;;;;5032588;28;20033;-64
2021/08/01 05:01:46;;;;;;;3.10;2.50;;;;;;;;;;5015211;28;20065;-67
2021/08/01 05:04:15;;;;;;;5.07;2.80;;;;;;;;;;5032833;28;20063;-67
2021/08/01 05:06:40;;;;;;;3.03;2.20;;;;;;;;;;5031782;28;20025;-65
2021/08/01 05:09:06;;;;;;;4.82;2.40;;;;;;;;;;5027184;28;20116;-68
2021/08/01 05:11:31;;;;;;;2.90;2.40;;;;;;;;;;5013373;28;20112;-68
2021/08/01 05:13:56;;;;;;;5.13;2.78;;;;;;;;;;5012544;28;20104;-67
2021/08/01 05:16:22;;;;;;;3.83;2.25;;;;;;;;;;5013691;28;20029;-67
2021/08/01 05:18:47;;;;;;;4.40;2.38;;;;;;;;;;5032551;28;20033;-68
2021/08/01 05:21:19;;;;;;;3.15;2.63;;;;;;;;;;5032078;28;20040;-67
2021/08/01 05:23:44;;;;;;;3.35;2.47;;;;;;;;;;5032025;28;20052;-67
2021/08/01 05:26:10;;;;;;;3.65;2.58;;;;;;;;;;5014558;28;20022;-64
2021/08/01 05:28:35;;;;;;;4.00;2.53;;;;;;;;;;5015233;28;20033;-65
2021/08/01 05:31:00;;;;;;;3.72;2.50;;;;;;;;;;5032762;28;20030;-66
2021/08/01 05:33:26;;;;;;;6.03;2.13;;;;;;;;;;5032513;28;20063;-66
2021/08/01 05:35:52;;;;;;;6.15;2.60;;;;;;;;;;5030799;28;20104;-69
2021/08/01 05:38:17;;;;;;;3.80;2.25;;;;;;;;;;5034888;28;20152;-67
2021/08/01 05:40:43;;;;;;;4.15;2.22;;;;;;;;;;5013393;28;20035;-69
2021/08/01 05:43:09;;;;;;;2.30;1.90;;;;;;;;;;4340889;28;10000717;-67
2021/08/01 05:45:34;;;;;;;3.42;2.47;;;;;;;;;;5048424;28;20337;-66
2021/08/01 05:47:59;;;;;;;4.13;2.17;;;;;;;;;;5050854;28;20028;-69
2021/08/01 05:50:25;;;;;;;7.47;2.50;;;;;;;;;;5033124;28;20559;-65
2021/08/01 05:52:50;;;;;;;2.80;2.15;;;;;;;;;;5034131;28;20025;-67
2021/08/01 05:55:16;;;;;;;2.78;2.30;;;;;;;;;;5029050;28;20791;-69
2021/08/01 05:57:41;;;;;;;2.83;1.95;;;;;;;;;;5032288;28;20364;-63
2021/08/01 06:00:06;;;;;;;5.38;2.40;;;;;;;;;;5032052;28;20029;-64
2021/08/01 06:02:32;;;;;;;3.40;2.17;;;;;;;;;;5032310;28;20028;-68
2021/08/01 06:04:57;;;;;;;3.85;2.40;;;;;;;;;;5031292;28;20459;-65
2021/08/01 06:07:22;;;;;;;3.58;2.30;;;;;;;;;;5018056;28;20057;-65
2021/08/01 06:09:48;;;;;;;3.25;2.50;;;;;;;;;;5029539;28;20033;-67
2021/08/01 06:12:14;;;;;;;4.30;2.40;;;;;;;;;;5031671;28;20017;-67
2021/08/01 06:14:40;;;;;;;3.40;2.30;;;;;;;;;;5031196;28;20104;-66
2021/08/01 06:17:05;;;;;;;6.07;2.70;;;;;;;;;;5030818;28;20856;-66
2021/08/01 06:19:30;;;;;;;3.72;2.30;;;;;;;;;;5031518;28;20090;-64
2021/08/01 06:21:56;;;;;;;5.32;2.30;;;;;;;;;;5014133;28;20454;-66
2021/08/01 06:24:24;;;;;;;3.40;2.33;;;;;;;;;;5031543;28;20048;-67
2021/08/01 06:26:49;;;;;;;2.50;2.20;;;;;;;;;;5030760;28;20041;-66
2021/08/01 06:29:15;;;;;;;5.82;2.50;;;;;;;;;;5031248;28;20379;-66
2021/08/01 06:31:40;;;;;;;4.90;2.53;;;;;;;;;;5014283;28;20079;-67
2021/08/01 06:34:05;;;;;;;3.67;2.30;;;;;;;;;;5013667;28;20076;-67
2021/08/01 06:36:31;;;;;;;3.15;2.28;;;;;;;;;;5013577;28;20029;-67
2021/08/01 06:38:58;;;;;;;3.85;2.50;;;;;;;;;;5013537;28;20037;-64
2021/08/01 06:41:24;;;;;;;3.35;2.60;;;;;;;;;;5033355;28;20034;-68
2021/08/01 06:43:49;;;;;;;4.53;2.20;;;;;;;;;;5030602;28;20029;-68
2021/08/01 06:46:14;;;;;;;3.10;2.45;;;;;;;;;;5029808;28;20057;-66
2021/08/01 06:48:39;;;;;;;2.97;2.55;;;;;;;;;;5031382;28;20029;-66
2021/08/01 06:51:05;;;;;;;5.53;2.55;;;;;;;;;;5031011;28;20025;-68
2021/08/01 06:53:31;;;;;;;3.00;2.60;;;;;;;;;;5029971;28;20030;-68
2021/08/01 06:55:56;;;;;;;4.07;2.38;;;;;;;;;;5031011;28;20014;-68
2021/08/01 06:58:22;;;;;;;5.90;2.80;;;;;;;;;;5031682;28;20402;-67
2021/08/01 07:00:48;;;;;;;4.90;2.65;;;;;;;;;;5030367;28;20029;-66
2021/08/01 07:03:13;;;;;;;4.25;2.53;;;;;;;;;;5014199;28;20086;-65
2021/08/01 07:05:39;;;;;;;2.63;2.20;;;;;;;;;;5030429;28;20025;-67
2021/08/01 07:08:04;;;;;;;2.53;1.98;;;;;;;;;;5031196;28;20036;-65
2021/08/01 07:10:29;;;;;;;3.17;2.60;;;;;;;;;;5028721;28;20071;-66
2021/08/01 07:12:55;;;;;;;3.28;2.45;;;;;;;;;;5029721;28;20026;-68
2021/08/01 07:15:24;;;;;;;4.22;2.58;;;;;;;;;;5012643;28;20044;-64
2021/08/01 07:17:54;;;;;;;4.85;2.67;;;;;;;;;;5032184;28;20406;-67
2021/08/01 07:20:20;;;;;;;2.85;2.60;;;;;;;;;;5010355;28;20033;-69
2021/08/01 07:22:45;;;;;;;3.47;2.60;;;;;;;;;;5011458;28;20430;-66
2021/08/01 07:25:11;;;;;;;5.43;2.78;;;;;;;;;;5010802;28;20061;-67
2021/08/01 07:27:36;;;;;;;3.80;2.78;;;;;;;;;;5010370;28;20036;-68
2021/08/01 07:30:02;;;;;;;4.22;2.83;;;;;;;;;;5011130;28;20128;-63
2021/08/01 07:32:28;;;;;;;2.63;2.20;;;;;;;;;;5011492;28;20053;-64
2021/08/01 07:34:53;;;;;;;5.18;2.60;;;;;;;;;;5021948;28;20796;-65
2021/08/01 07:37:18;;;;;;;3.75;2.55;;;;;;;;;;5030687;28;20060;-65
2021/08/01 07:39:45;;;;;;;6.40;3.00;;;;;;;;;;5029222;28;20030;-64
2021/08/01 07:42:10;;;;;;;3.37;2.70;;;;;;;;;;5031176;28;20029;-66
2021/08/01 07:44:50;;;;;;;3.42;2.53;;;;;;;;;;5011187;28;20080;-66
2021/08/01 07:47:18;;;;;;;4.78;2.72;;;;;;;;;;5032475;28;20419;-68
2021/08/01 07:49:44;;;;;;;4.78;2.40;;;;;;;;;;5029750;28;20030;-65
2021/08/01 07:52:09;;;;;;;4.05;2.92;;;;;;;;;;5031235;28;20111;-64
2021/08/01 07:54:35;;;;;;;3.90;3.00;;;;;;;;;;5028772;28;20068;-64
2021/08/01 07:57:00;;;;;;;3.53;2.92;;;;;;;;;;5030733;28;20069;-65
2021/08/01 07:59:25;;;;;;;5.50;3.10;;;;;;;;;;5030340;28;20022;-66
2021/08/01 08:01:51;;;;;;;3.42;3.08;;;;;;;;;;5013613;28;20432;-65
2021/08/01 08:04:16;;;;;;;3.00;2.70;;;;;;;;;;5016637;28;20025;-67
2021/08/01 08:06:44;;;;;;;4.88;3.08;;;;;;;;;;5030446;28;20029;-66
2021/08/01 08:09:09;;;;;;;4.22;2.90;;;;;;;;;;5030052;28;20021;-64
2021/08/01 08:11:34;;;;;;;3.78;3.38;;;;;;;;;;5031196;28;20208;-67
2021/08/01 08:14:00;;;;;;;6.45;3.30;;;;;;;;;;5033022;28;20033;-66
2021/08/01 08:16:25;;;;;;;5.32;3.28;;;;;;;;;;5036456;28;20096;-66
2021/08/01 08:18:53;;;;;;;6.03;3.28;;;;;;;;;;5033427;28;20132;-69
2021/08/01 08:21:19;;;;;;;5.20;3.35;;;;;;;;;;5032830;28;20033;-65
2021/08/01 08:23:45;;;;;;;4.38;3.10;;;;;;;;;;5016113;28;20140;-69
2021/08/01 08:26:10;;;;;;;3.88;3.15;;;;;;;;;;5033530;28;20441;-66
2021/08/01 08:28:38;;;;;;;4.68;2.90;;;;;;;;;;5033796;28;20037;-67
2021/08/01 08:31:04;;;;;;;3.92;2.85;;;;;;;;;;5033029;28;20096;-64
2021/08/01 08:33:29;;;;;;;4.28;2.90;;;;;;;;;;5018051;28;20049;-66
2021/08/01 08:35:54;;;;;;;6.03;3.13;;;;;;;;;;5013366;28;20026;-67
2021/08/01 08:38:22;;;;;;;4.82;3.40;;;;;;;;;;4996604;28;20021;-65
2021/08/01 08:40:48;;;;;;;6.20;3.08;;;;;;;;;;5030611;28;20021;-68
2021/08/01 08:43:14;;;;;;;4.35;2.90;;;;;;;;;;5034099;28;20112;-66
2021/08/01 08:45:44;;;;;;;5.30;2.80;;;;;;;;;;5032116;28;20156;-66
2021/08/01 08:48:12;;;;;;;5.05;3.03;;;;;;;;;;5031763;28;20506;-66
2021/08/01 08:50:38;;;;;;;4.55;2.85;;;;;;;;;;5027528;28;20167;-68
2021/08/01 08:53:06;;;;;;;3.70;2.97;;;;;;;;;;5032769;28;20261;-65
2021/08/01 08:55:35;;;;;;;4.80;2.72;;;;;;;;;;5032225;28;20041;-66
2021/08/01 08:58:05;;;;;;;4.00;2.70;;;;;;;;;;5032859;28;20033;-64
2021/08/01 09:00:31;;;;;;;4.30;3.00;;;;;;;;;;5032944;28;20068;-65
2021/08/01 09:02:57;;;;;;;4.05;2.70;;;;;;;;;;5033386;28;20029;-63
2021/08/01 09:05:22;;;;;;;3.90;2.70;;;;;;;;;;5032500;28;20032;-66
2021/08/01 09:07:48;;;;;;;2.60;2.40;;;;;;;;;;5032802;28;20044;-66
2021/08/01 09:10:17;;;;;;;4.05;2.10;;;;;;;;;;5032854;28;20032;-69
2021/08/01 09:12:47;;;;;;;4.28;2.67;;;;;;;;;;5032550;28;20033;-66
2021/08/01 09:15:28;;;;;;;4.40;2.40;;;;;;;;;;5030657;28;20033;-65
2021/08/01 09:17:57;;;;;;;3.90;2.50;;;;;;;;;;5032077;28;20028;-63
2021/08/01 09:20:25;;;;;;;3.90;2.67;;;;;;;;;;5017107;28;20017;-65
2021/08/01 09:23:06;;;;;;;4.38;2.20;;;;;;;;;;5031639;28;20026;-66
2021/08/01 09:25:34;;;;;;;3.40;2.22;;;;;;;;;;5031621;28;20037;-63
2021/08/01 09:28:08;;;;;;;4.15;2.17;;;;;;;;;;5033154;28;20756;-66
2021/08/01 09:30:55;;;;;;;3.03;2.15;;;;;;;;;;5031835;28;20485;-63
2021/08/01 09:33:32;;;;;;;;;;;;;;;;;;5032625;28;20491;-66
2021/08/01 09:36:25;;;;;;;3.25;1.92;;;;;;;;;;5012211;28;20362;-65
2021/08/01 09:38:58;;;;;;;2.22;1.90;;;;;;;;;;5012926;28;20037;-65
2021/08/01 09:41:44;;;;;;;4.65;2.10;;;;;;;;;;5031537;28;20033;-67
2021/08/01 09:44:18;;;;;;;3.13;2.10;;;;;;;;;;5031234;28;20033;-65
2021/08/01 09:46:45;;;;;;;2.70;2.13;;;;;;;;;;5032354;28;20104;-65
2021/08/01 09:49:22;;;;;;;3.20;1.98;;;;;;;;;;5030340;28;20115;-69
2021/08/01 09:51:47;;;;;;;;;;;;;;;;;;5031166;28;20033;-66
2021/08/01 09:54:15;;;;;;;4.93;1.97;;;;;;;;;;5030952;28;19915;-67
2021/08/01 09:57:01;;;;;;;2.67;1.80;;;;;;;;;;5034534;28;20147;-66
2021/08/01 09:59:32;;;;;;;2.25;1.30;;;;;;;;;;5046447;28;20033;-68
2021/08/01 10:02:03;;;;;;;3.35;1.77;;;;;;;;;;5052497;28;20060;-66
2021/08/01 10:04:30;;;;;;;3.22;1.83;;;;;;;;;;5038493;28;20072;-65
2021/08/01 10:07:07;;;;;;;4.50;1.98;;;;;;;;;;5032314;28;20028;-63
2021/08/01 10:09:34;;;;;;;2.05;1.70;;;;;;;;;;5031247;28;20029;-64
2021/08/01 10:12:00;;;;;;;2.67;1.80;;;;;;;;;;5032336;28;20030;-68
2021/08/01 10:14:27;;;;;;;3.83;2.17;;;;;;;;;;5034106;28;20052;-64
2021/08/01 10:16:52;;;;;;;3.47;1.90;;;;;;;;;;5032426;28;20018;-66
2021/08/01 10:19:19;;;;;;;2.10;1.70;;;;;;;;;;5030036;28;20026;-65
2021/08/01 10:21:49;;;;;;;3.35;1.80;;;;;;;;;;5014061;28;20116;-66
2021/08/01 10:24:20;;;;;;;3.38;1.90;;;;;;;;;;5012301;28;20474;-63
2021/08/01 10:26:47;;;;;;;4.15;2.10;;;;;;;;;;5031856;28;20025;-66
2021/08/01 10:29:17;;;;;;;2.55;1.83;;;;;;;;;;5031087;28;20028;-68
2021/08/01 10:31:54;;;;;;;3.08;2.10;;;;;;;;;;5031480;28;20025;-69
2021/08/01 10:34:35;;;;;;;2.35;1.67;;;;;;;;;;5029378;28;20057;-66
2021/08/01 10:37:07;;;;;;;3.38;2.08;;;;;;;;;;5013379;28;20033;-68
2021/08/01 10:39:35;;;;;;;2.20;1.70;;;;;;;;;;5030904;28;20041;-68
2021/08/01 10:42:06;;;;;;;2.95;1.77;;;;;;;;;;5034148;28;20104;-69
2021/08/01 10:44:33;;;;;;;2.78;1.48;;;;;;;;;;5029588;28;20036;-67
2021/08/01 10:47:00;;;;;;;2.47;1.70;;;;;;;;;;5013973;28;20036;-68
2021/08/01 10:49:25;;;;;;;3.05;1.70;;;;;;;;;;4318148;28;10000722;-66
2021/08/01 10:51:51;;;;;;;2.70;1.40;;;;;;;;;;5014721;28;20025;-68
2021/08/01 10:54:20;;;;;;;5.07;1.48;;;;;;;;;;5034890;28;20513;-68
2021/08/01 10:57:06;;;;;;;1.77;1.13;;;;;;;;;;5015439;28;20017;-63
2021/08/01 10:59:43;;;;;;;1.40;0.90;;;;;;;;;;5033632;28;20030;-69
2021/08/01 11:02:29;;;;;;;3.95;0.98;;;;;;;;;;5032848;28;20033;-66
2021/08/01 11:04:55;;;;;;;2.38;1.20;;;;;;;;;;5030978;28;20540;-65
2021/08/01 11:07:27;;;;;;;1.20;0.93;;;;;;;;;;5016699;28;20040;-68
2021/08/01 11:10:04;;;;;;;1.73;0.80;;;;;;;;;;5034966;28;20181;-68
2021/08/01 11:12:33;;;;;;;1.80;1.10;;;;;;;;;;5034270;28;20029;-68
2021/08/01 11:15:01;;;;;;;2.65;0.90;;;;;;;;;;5036085;28;20037;-65
2021/08/01 11:17:42;;;;;;;1.02;0.70;;;;;;;;;;5035125;28;20017;-67
2021/08/01 11:20:20;;;;;;;2.45;0.93;;;;;;;;;;5033846;28;20044;-66
2021/08/01 11:22:45;;;;;;;1.25;0.77;;;;;;;;;;5034379;28;20490;-66
2021/08/01 11:25:32;;;;;;;1.02;0.70;;;;;;;;;;5034188;28;20032;-68
2021/08/01 11:28:09;;;;;;;1.40;0.82;;;;;;;;;;5034986;28;20043;-67
2021/08/01 11:33:30;;;;;;;4.80;1.20;;;;;;;;;;5034380;28;20051;-66
2021/08/01 11:36:15;;;;;;;1.98;1.17;;;;;;;;;;5032880;28;20465;-67
2021/08/01 11:38:56;;;;;;;3.50;1.25;;;;;;;;;;5017072;28;20378;-68
2021/08/01 11:41:27;;;;;;;3.15;1.30;;;;;;;;;;5033472;28;20087;-66
2021/08/01 11:44:12;;;;;;;2.97;1.10;;;;;;;;;;5034719;28;20430;-65
2021/08/01 11:46:46;;;;;;;2.90;1.00;;;;;;;;;;5034485;28;20029;-68
2021/08/01 11:49:13;;;;;;;2.40;0.93;;;;;;;;;;5037448;28;20390;-67
2021/08/01 11:51:45;;;;;;;4.30;1.00;;;;;;;;;;5019604;28;20429;-65
2021/08/01 11:54:11;;;;;;;1.20;0.98;;;;;;;;;;5038629;28;20630;-66
2021/08/01 11:56:41;;;;;;;2.23;0.90;;;;;;;;;;5037161;28;20080;-65
2021/08/01 11:59:08;;;;;;;1.17;0.90;;;;;;;;;;5038742;28;20272;-66
2021/08/01 12:01:34;;;;;;;1.40;0.90;;;;;;;;;;5020715;28;20036;-65
2021/08/01 12:04:07;;;;;;;4.93;1.15;;;;;;;;;;5020235;28;20033;-66
2021/08/01 12:06:36;;;;;;;2.35;1.13;;;;;;;;;;5037127;28;20032;-68
2021/08/01 12:09:17;;;;;;;1.60;1.00;;;;;;;;;;5038447;28;20116;-63
2021/08/01 12:11:45;;;;;;;1.38;0.90;;;;;;;;;;5038489;28;20034;-63
2021/08/01 12:14:10;;;;;;;1.63;0.98;;;;;;;;;;5036486;28;20462;-66
2021/08/01 12:16:36;;;;;;;2.28;1.08;;;;;;;;;;5038072;28;20096;-68
2021/08/01 12:19:15;;;;;;;1.73;1.10;;;;;;;;;;5038862;28;20021;-68
2021/08/01 12:21:40;;;;;;;1.60;1.00;;;;;;;;;;5019663;28;20098;-67
2021/08/01 12:24:06;;;;;;;2.80;1.13;;;;;;;;;;5037284;28;20051;-68
2021/08/01 12:26:40;;;;;;;2.25;1.10;;;;;;;;;;5037963;28;20013;-67
2021/08/01 12:29:06;;;;;;;1.65;0.98;;;;;;;;;;5038057;28;20043;-67
2021/08/01 12:31:32;;;;;;;7.30;1.10;;;;;;;;;;5038283;28;20048;-65
2021/08/01 12:33:57;;;;;;;3.17;1.08;;;;;;;;;;5038540;28;20296;-67
2021/08/01 12:36:27;;;;;;;1.95;1.05;;;;;;;;;;5036929;28;20025;-66
2021/08/01 12:38:53;;;;;;;1.65;1.00;;;;;;;;;;5037562;28;20025;-65
2021/08/01 12:41:20;;;;;;;2.17;1.20;;;;;;;;;;5020150;28;20017;-66
2021/08/01 12:43:46;;;;;;;9.82;1.23;;;;;;;;;;5037934;28;20032;-69
2021/08/01 12:46:19;;;;;;;3.00;1.30;;;;;;;;;;5038149;28;20029;-67
2021/08/01 12:48:48;;;;;;;3.50;1.30;;;;;;;;;;5037023;28;20032;-64
2021/08/01 12:51:14;;;;;;;1.85;0.95;;;;;;;;;;5037253;28;20052;-68
2021/08/01 12:53:40;;;;;;;1.58;0.85;;;;;;;;;;5036498;28;20359;-68
2021/08/01 12:56:07;;;;;;;1.83;1.00;;;;;;;;;;5037071;28;20031;-67
2021/08/01 12:58:39;;;;;;;4.38;1.20;;;;;;;;;;5035480;28;20029;-67
2021/08/01 13:01:09;;;;;;;2.85;1.00;;;;;;;;;;5035797;28;20594;-66
2021/08/01 13:03:41;;;;;;;2.33;0.93;;;;;;;;;;5037219;28;20028;-64
2021/08/01 13:06:08;;;;;;;1.08;0.90;;;;;;;;;;5017800;28;20824;-65
2021/08/01 13:08:34;;;;;;;2.78;1.00;;;;;;;;;;5018830;28;20028;-68
2021/08/01 13:10:59;;;;;;;1.98;0.90;;;;;;;;;;5036965;28;20025;-66
2021/08/01 13:13:24;;;;;;;1.65;0.90;;;;;;;;;;5036621;28;20017;-66
2021/08/01 13:15:52;;;;;;;2.65;1.05;;;;;;;;;;5036000;28;20283;-68
2021/08/01 13:18:32;;;;;;;1.48;0.90;;;;;;;;;;5036149;28;20144;-64
2021/08/01 13:20:59;;;;;;;1.00;0.90;;;;;;;;;;5035314;28;20029;-69
2021/08/01 13:23:29;;;;;;;;;;;;;;;;;;5037554;28;20086;-65
2021/08/01 13:25:55;;;;;;;2.00;0.70;;;;;;;;;;5018392;28;19948;-68
2021/08/01 13:28:56;;;;;;;2.67;0.90;;;;;;;;;;5019249;28;20033;-68
2021/08/01 13:31:39;;;;;;;1.48;0.80;;;;;;;;;;5036133;28;20021;-68
2021/08/01 13:34:07;;;;;;;1.55;1.00;;;;;;;;;;5036465;28;20044;-65
2021/08/01 13:36:45;;;;;;;2.63;0.77;;;;;;;;;;5036265;28;20021;-65
2021/08/01 13:39:12;;;;;;;1.25;0.90;;;;;;;;;;5017757;28;20032;-67
2021/08/01 13:41:37;;;;;;;;;;;;;;;;;;5037281;28;20100;-64
2021/08/01 13:44:13;;;;;;;2.60;1.00;;;;;;;;;;5036416;28;19999;-65
2021/08/01 13:46:39;;;;;;;1.85;0.95;;;;;;;;;;5037235;28;20120;-66
2021/08/01 13:49:07;;;;;;;1.73;0.98;;;;;;;;;;5034626;28;20100;-65
2021/08/01 13:51:33;;;;;;;2.80;0.90;;;;;;;;;;5035870;28;20082;-65
2021/08/01 13:53:59;;;;;;;5.03;0.80;;;;;;;;;;5032473;28;20033;-64
2021/08/01 13:56:29;;;;;;;1.63;0.90;;;;;;;;;;5026836;28;20486;-66
2021/08/01 13:58:55;;;;;;;2.95;0.90;;;;;;;;;;5032517;28;20284;-65
2021/08/01 14:01:22;;;;;;;0.75;0.70;;;;;;;;;;5012843;28;20037;-66
2021/08/01 14:03:48;;;;;;;;;;;;;;;;;;5014424;28;20486;-69
2021/08/01 14:06:13;;;;;;;1.90;1.00;;;;;;;;;;5017913;28;19920;-67
2021/08/01 14:08:38;;;;;;;3.20;1.08;;;;;;;;;;5023625;28;20033;-70
2021/08/01 14:11:04;;;;;;;1.33;1.08;;;;;;;;;;5034979;28;20029;-67
2021/08/01 14:13:29;;;;;;;1.20;1.10;;;;;;;;;;5001951;28;20016;-68
2021/08/01 14:15:57;;;;;;;1.42;0.80;;;;;;;;;;5034583;28;20021;-69
2021/08/01 14:18:22;;;;;;;1.60;1.00;;;;;;;;;;5016108;28;20185;-66
2021/08/01 14:20:47;;;;;;;2.80;1.05;;;;;;;;;;5032719;28;20024;-66
2021/08/01 14:23:13;;;;;;;1.83;1.13;;;;;;;;;;5035613;28;20044;-69
2021/08/01 14:25:39;;;;;;;2.50;0.93;;;;;;;;;;5033446;28;20029;-66
2021/08/01 14:28:04;;;;;;;1.83;0.95;;;;;;;;;;5017598;28;20035;-68
2021/08/01 14:30:30;;;;;;;5.15;1.15;;;;;;;;;;5031955;28;20479;-67
2021/08/01 14:32:55;;;;;;;1.55;1.13;;;;;;;;;;5035806;28;20638;-69
2021/08/01 14:35:21;;;;;;;3.70;1.00;;;;;;;;;;5035399;28;20686;-67
2021/08/01 14:37:48;;;;;;;1.50;1.20;;;;;;;;;;5035186;28;20267;-69
2021/08/01 14:40:19;;;;;;;1.43;1.13;;;;;;;;;;5031916;28;20068;-67
2021/08/01 14:42:46;;;;;;;4.50;1.23;;;;;;;;;;5035924;28;20477;-66
2021/08/01 14:45:11;;;;;;;4.32;1.05;;;;;;;;;;5034870;28;20082;-66
2021/08/01 14:47:38;;;;;;;2.22;0.93;;;;;;;;;;5037229;28;20459;-68
2021/08/01 14:50:15;;;;;;;1.23;0.77;;;;;;;;;;5033670;28;20035;-69
2021/08/01 14:52:58;;;;;;;;;;;;;;;;;;5036004;28;20108;-69
2021/08/01 14:55:24;;;;;;;2.15;1.27;;;;;;;;;;5034877;28;20292;-65